Time;durP1;ratioP1;P1;durP2;ratioP2;P2;SDS_P1;SDS_P2;PMS_P1;PMS_P2;Temp;Humidity;BMP_temperature;BMP_pressure;BME280_temperature;BME280_humidity;BME280_pressure;Samples;Min_cycle;Max_cycle;Signal;HPM_P1;HPM_P2
2022/09/09 00:01:01;;;;;;;2.38;1.05;;;;;;;;;;4995583;28;20517;-70
2022/09/09 00:03:33;;;;;;;2.70;1.30;;;;;;;;;;4997176;28;20033;-69
2022/09/09 00:06:08;;;;;;;3.58;1.00;;;;;;;;;;4996746;28;20502;-71
2022/09/09 00:08:42;;;;;;;2.78;1.23;;;;;;;;;;4997140;28;20109;-70
2022/09/09 00:11:10;;;;;;;3.03;1.17;;;;;;;;;;4996780;28;20018;-69
2022/09/09 00:13:47;;;;;;;2.80;1.25;;;;;;;;;;4996768;28;20019;-68
2022/09/09 00:16:16;;;;;;;3.35;1.33;;;;;;;;;;4996858;28;20073;-69
2022/09/09 00:18:59;;;;;;;2.83;1.23;;;;;;;;;;4996895;28;20018;-68
2022/09/09 00:21:37;;;;;;;3.17;1.20;;;;;;;;;;4996618;28;20030;-68
2022/09/09 00:24:25;;;;;;;3.97;1.38;;;;;;;;;;4996590;28;20037;-68
2022/09/09 00:26:54;;;;;;;1.88;1.02;;;;;;;;;;4996539;28;20518;-68
2022/09/09 00:29:22;;;;;;;2.85;0.93;;;;;;;;;;4996397;28;20106;-69
2022/09/09 00:31:49;;;;;;;1.88;0.90;;;;;;;;;;4996240;28;20494;-68
2022/09/09 00:34:26;;;;;;;2.47;0.80;;;;;;;;;;4996375;28;20019;-68
2022/09/09 00:36:54;;;;;;;2.08;0.90;;;;;;;;;;4996519;28;20068;-68
2022/09/09 00:39:33;;;;;;;1.27;0.80;;;;;;;;;;4995046;28;20113;-69
2022/09/09 00:42:15;;;;;;;2.47;0.90;;;;;;;;;;4996197;28;20019;-69
2022/09/09 00:44:52;;;;;;;1.52;0.70;;;;;;;;;;4994784;28;20026;-69
2022/09/09 00:47:30;;;;;;;2.85;0.80;;;;;;;;;;4994768;28;20098;-68
2022/09/09 00:50:09;;;;;;;1.55;0.90;;;;;;;;;;4996382;28;20041;-69
2022/09/09 00:52:45;;;;;;;3.22;1.00;;;;;;;;;;4994761;28;20494;-68
2022/09/09 00:55:15;;;;;;;2.45;0.85;;;;;;;;;;4996025;28;20045;-68
2022/09/09 00:57:46;;;;;;;1.73;1.00;;;;;;;;;;4993514;28;20061;-70
2022/09/09 01:00:21;;;;;;;1.95;1.15;;;;;;;;;;4996046;28;20019;-69
2022/09/09 01:02:52;;;;;;;2.58;0.80;;;;;;;;;;4994792;28;20056;-69
2022/09/09 01:05:42;;;;;;;3.53;1.00;;;;;;;;;;4994498;28;20053;-69
2022/09/09 01:08:23;;;;;;;1.83;1.00;;;;;;;;;;4995205;28;20080;-69
2022/09/09 01:10:54;;;;;;;1.80;1.10;;;;;;;;;;4996492;28;20244;-69
2022/09/09 01:13:33;;;;;;;3.85;1.48;;;;;;;;;;4995761;28;20018;-69
2022/09/09 01:16:02;;;;;;;4.18;1.20;;;;;;;;;;4996124;28;20076;-68
2022/09/09 01:18:34;;;;;;;2.38;0.82;;;;;;;;;;4995780;28;20034;-70
2022/09/09 01:21:10;;;;;;;1.20;0.90;;;;;;;;;;4995946;28;20026;-71
2022/09/09 01:23:40;;;;;;;1.90;0.57;;;;;;;;;;4996129;28;20022;-71
2022/09/09 01:26:17;;;;;;;1.27;0.57;;;;;;;;;;4995336;28;20731;-70
2022/09/09 01:28:45;;;;;;;2.55;1.10;;;;;;;;;;4995285;28;20117;-70
2022/09/09 01:31:16;;;;;;;1.77;0.70;;;;;;;;;;4994424;28;20033;-70
2022/09/09 01:33:43;;;;;;;3.22;1.05;;;;;;;;;;4995713;28;20486;-70
2022/09/09 01:36:28;;;;;;;0.73;0.43;;;;;;;;;;4995406;28;20036;-68
2022/09/09 01:38:55;;;;;;;5.57;3.03;;;;;;;;;;4994978;28;20057;-69
2022/09/09 01:41:22;;;;;;;0.95;0.65;;;;;;;;;;4993498;28;20482;-69
2022/09/09 01:43:51;;;;;;;0.88;0.60;;;;;;;;;;4993977;28;20108;-69
2022/09/09 01:46:19;;;;;;;0.75;0.50;;;;;;;;;;4992367;28;20376;-68
2022/09/09 01:48:56;;;;;;;1.00;0.50;;;;;;;;;;4990813;28;20046;-68
2022/09/09 01:51:41;;;;;;;0.50;0.30;;;;;;;;;;4993444;28;20025;-68
2022/09/09 01:54:09;;;;;;;1.48;0.50;;;;;;;;;;4994659;28;20097;-68
2022/09/09 01:56:44;;;;;;;1.63;0.50;;;;;;;;;;4992253;28;20023;-68
2022/09/09 01:59:14;;;;;;;1.60;0.50;;;;;;;;;;4993618;28;20168;-69
2022/09/09 02:02:02;;;;;;;0.47;0.35;;;;;;;;;;4993643;28;20026;-68
2022/09/09 02:05:01;;;;;;;1.17;0.55;;;;;;;;;;4993236;28;20109;-69
2022/09/09 02:07:40;;;;;;;1.40;0.47;;;;;;;;;;4981356;28;20053;-68
2022/09/09 02:10:07;;;;;;;1.02;0.40;;;;;;;;;;4993909;28;20522;-67
2022/09/09 02:12:34;;;;;;;0.85;0.28;;;;;;;;;;4994744;28;20097;-69
2022/09/09 02:15:09;;;;;;;0.70;0.40;;;;;;;;;;4993186;28;20030;-68
2022/09/09 02:17:37;;;;;;;2.08;0.43;;;;;;;;;;4993349;28;20034;-68
2022/09/09 02:20:09;;;;;;;1.08;0.30;;;;;;;;;;4994512;28;20022;-68
2022/09/09 02:22:39;;;;;;;0.55;0.38;;;;;;;;;;4994677;28;20025;-68
2022/09/09 02:25:09;;;;;;;1.02;0.50;;;;;;;;;;4994469;28;20145;-68
2022/09/09 02:27:36;;;;;;;1.48;0.57;;;;;;;;;;4994554;28;20154;-68
2022/09/09 02:30:04;;;;;;;0.30;0.30;;;;;;;;;;4994374;28;20022;-67
2022/09/09 02:32:33;;;;;;;0.65;0.28;;;;;;;;;;4994627;28;20430;-67
2022/09/09 02:35:18;;;;;;;0.40;0.40;;;;;;;;;;4994224;28;20026;-67
2022/09/09 02:37:46;;;;;;;0.93;0.30;;;;;;;;;;4994599;28;20467;-67
2022/09/09 02:40:15;;;;;;;1.17;0.30;;;;;;;;;;4994253;28;20097;-67
2022/09/09 02:42:43;;;;;;;1.50;0.40;;;;;;;;;;4994177;28;20018;-67
2022/09/09 02:45:12;;;;;;;0.30;0.28;;;;;;;;;;4994029;28;20026;-68
2022/09/09 02:47:48;;;;;;;0.50;0.20;;;;;;;;;;4992939;28;20026;-67
2022/09/09 02:50:24;;;;;;;1.92;0.45;;;;;;;;;;4994338;28;20029;-68
2022/09/09 02:53:10;;;;;;;0.50;0.40;;;;;;;;;;4992680;28;20050;-67
2022/09/09 02:55:37;;;;;;;0.63;0.30;;;;;;;;;;4993985;28;20029;-68
2022/09/09 02:58:06;;;;;;;0.80;0.40;;;;;;;;;;4994004;28;20030;-67
2022/09/09 03:00:35;;;;;;;0.60;0.20;;;;;;;;;;4993810;28;20018;-67
2022/09/09 03:03:04;;;;;;;0.52;0.30;;;;;;;;;;4993776;28;20715;-68
2022/09/09 03:05:31;;;;;;;1.23;0.50;;;;;;;;;;4993631;28;20050;-67
2022/09/09 03:07:59;;;;;;;1.08;0.20;;;;;;;;;;4994171;28;20027;-67
2022/09/09 03:10:26;;;;;;;0.70;0.30;;;;;;;;;;4992351;28;20499;-67
2022/09/09 03:12:53;;;;;;;0.38;0.30;;;;;;;;;;4993649;28;20078;-67
2022/09/09 03:15:20;;;;;;;0.85;0.30;;;;;;;;;;4993718;28;20050;-68
2022/09/09 03:17:47;;;;;;;0.52;0.20;;;;;;;;;;4993854;28;20083;-69
2022/09/09 03:20:14;;;;;;;1.60;0.32;;;;;;;;;;4993242;28;20026;-67
2022/09/09 03:22:41;;;;;;;0.35;0.20;;;;;;;;;;4992055;28;20030;-67
2022/09/09 03:25:09;;;;;;;0.60;0.20;;;;;;;;;;4993602;28;20364;-67
2022/09/09 03:27:36;;;;;;;0.93;0.30;;;;;;;;;;4992329;28;20026;-67
2022/09/09 03:30:03;;;;;;;1.08;0.35;;;;;;;;;;4992439;28;20098;-67
2022/09/09 03:32:31;;;;;;;3.08;0.70;;;;;;;;;;4993598;28;20033;-70
2022/09/09 03:34:58;;;;;;;1.65;0.80;;;;;;;;;;4993661;28;20026;-67
2022/09/09 03:37:25;;;;;;;5.20;1.48;;;;;;;;;;4993554;28;20073;-67
2022/09/09 03:39:54;;;;;;;3.92;1.13;;;;;;;;;;4992307;28;20029;-67
2022/09/09 03:42:21;;;;;;;2.92;0.90;;;;;;;;;;4993639;28;20122;-68
2022/09/09 03:44:50;;;;;;;3.50;0.80;;;;;;;;;;4992218;28;20023;-67
2022/09/09 03:47:21;;;;;;;3.58;0.80;;;;;;;;;;4992171;28;20023;-66
2022/09/09 03:49:48;;;;;;;1.90;0.60;;;;;;;;;;4993793;28;20478;-67
2022/09/09 03:52:16;;;;;;;1.95;0.50;;;;;;;;;;4992229;28;20032;-67
2022/09/09 03:54:43;;;;;;;1.35;0.60;;;;;;;;;;4993376;28;20031;-68
2022/09/09 03:57:11;;;;;;;1.17;0.50;;;;;;;;;;4993282;28;20117;-68
2022/09/09 03:59:38;;;;;;;1.67;0.57;;;;;;;;;;4992075;28;20446;-67
2022/09/09 04:02:05;;;;;;;2.05;0.70;;;;;;;;;;4993543;28;20030;-67
2022/09/09 04:04:32;;;;;;;0.38;0.30;;;;;;;;;;4993278;28;20054;-68
2022/09/09 04:06:59;;;;;;;1.13;0.40;;;;;;;;;;4992041;28;20047;-68
2022/09/09 04:09:27;;;;;;;1.23;0.40;;;;;;;;;;4993126;28;20430;-68
2022/09/09 04:11:54;;;;;;;0.82;0.40;;;;;;;;;;4992175;28;20057;-68
2022/09/09 04:14:27;;;;;;;;;;;;;;;;;;4993678;28;20026;-67
2022/09/09 04:16:57;;;;;;;0.82;0.30;;;;;;;;;;4993430;28;20342;-68
2022/09/09 04:19:24;;;;;;;0.70;0.52;;;;;;;;;;4992968;28;20022;-69
2022/09/09 04:21:51;;;;;;;1.30;0.30;;;;;;;;;;4991859;28;20499;-70
2022/09/09 04:24:19;;;;;;;0.25;0.25;;;;;;;;;;4992739;28;20050;-69
2022/09/09 04:26:47;;;;;;;1.17;0.40;;;;;;;;;;4992196;28;20049;-69
2022/09/09 04:29:14;;;;;;;0.30;0.28;;;;;;;;;;4993407;28;20120;-69
2022/09/09 04:31:41;;;;;;;0.70;0.32;;;;;;;;;;4993082;28;20048;-69
2022/09/09 04:34:10;;;;;;;0.82;0.30;;;;;;;;;;4995007;28;20025;-69
2022/09/09 04:36:37;;;;;;;2.42;0.30;;;;;;;;;;4995679;28;20438;-69
2022/09/09 04:39:04;;;;;;;0.40;0.17;;;;;;;;;;4996397;28;20031;-68
2022/09/09 04:41:31;;;;;;;0.98;0.30;;;;;;;;;;4996598;28;20085;-68
2022/09/09 04:44:00;;;;;;;0.47;0.30;;;;;;;;;;4996350;28;20022;-68
2022/09/09 04:46:28;;;;;;;1.30;0.50;;;;;;;;;;4995467;28;20483;-68
2022/09/09 04:48:55;;;;;;;0.90;0.40;;;;;;;;;;4995943;28;20519;-68
2022/09/09 04:51:25;;;;;;;0.45;0.32;;;;;;;;;;4995652;28;20027;-69
2022/09/09 04:53:53;;;;;;;0.90;0.40;;;;;;;;;;4994290;28;20483;-67
2022/09/09 04:56:21;;;;;;;0.68;0.40;;;;;;;;;;4995522;28;20126;-67
2022/09/09 04:58:48;;;;;;;0.50;0.22;;;;;;;;;;4995332;28;20391;-68
2022/09/09 05:01:21;;;;;;;1.27;0.30;;;;;;;;;;4994455;28;20030;-67
2022/09/09 05:03:48;;;;;;;1.33;0.25;;;;;;;;;;4994789;28;20030;-68
2022/09/09 05:06:17;;;;;;;0.40;0.22;;;;;;;;;;4995558;28;20051;-67
2022/09/09 05:08:45;;;;;;;0.20;0.20;;;;;;;;;;4996028;28;20026;-67
2022/09/09 05:11:18;;;;;;;0.60;0.30;;;;;;;;;;4996189;28;20152;-67
2022/09/09 05:13:45;;;;;;;0.77;0.50;;;;;;;;;;4994511;28;20026;-68
2022/09/09 05:16:13;;;;;;;0.25;0.10;;;;;;;;;;4995610;28;20034;-68
2022/09/09 05:18:42;;;;;;;0.85;0.40;;;;;;;;;;4995703;28;20597;-68
2022/09/09 05:21:10;;;;;;;0.15;0.15;;;;;;;;;;4993368;28;20133;-68
2022/09/09 05:23:38;;;;;;;0.73;0.30;;;;;;;;;;4994582;28;20031;-69
2022/09/09 05:26:05;;;;;;;0.88;0.30;;;;;;;;;;4995222;28;20037;-67
2022/09/09 05:28:35;;;;;;;0.65;0.30;;;;;;;;;;4993834;28;20132;-67
2022/09/09 05:31:07;;;;;;;0.65;0.30;;;;;;;;;;4995037;28;20390;-69
2022/09/09 05:33:35;;;;;;;0.50;0.30;;;;;;;;;;4993851;28;20118;-69
2022/09/09 05:36:07;;;;;;;0.30;0.30;;;;;;;;;;4994233;28;20093;-70
2022/09/09 05:38:35;;;;;;;0.45;0.20;;;;;;;;;;4995385;28;20018;-70
2022/09/09 05:41:03;;;;;;;0.40;0.20;;;;;;;;;;4995376;28;20022;-70
2022/09/09 05:43:32;;;;;;;0.35;0.25;;;;;;;;;;4994906;28;20462;-69
2022/09/09 05:46:07;;;;;;;0.85;0.20;;;;;;;;;;4993418;28;20034;-70
2022/09/09 05:48:46;;;;;;;0.40;0.30;;;;;;;;;;4993112;28;20029;-69
2022/09/09 05:51:17;;;;;;;1.13;0.30;;;;;;;;;;4993856;28;20487;-69
2022/09/09 05:53:45;;;;;;;0.20;0.20;;;;;;;;;;4995534;28;20091;-69
2022/09/09 05:56:17;;;;;;;0.20;0.13;;;;;;;;;;4994984;28;20035;-69
2022/09/09 05:58:46;;;;;;;0.63;0.20;;;;;;;;;;4995470;28;20026;-70
2022/09/09 06:01:14;;;;;;;0.25;0.22;;;;;;;;;;4993909;28;20026;-71
2022/09/09 06:03:43;;;;;;;0.77;0.30;;;;;;;;;;4994318;28;20053;-71
2022/09/09 06:06:11;;;;;;;1.77;0.60;;;;;;;;;;4994189;28;20039;-70
2022/09/09 06:08:40;;;;;;;2.22;0.80;;;;;;;;;;4995014;28;20030;-70
2022/09/09 06:11:09;;;;;;;3.83;1.02;;;;;;;;;;4994923;28;20018;-71
2022/09/09 06:13:38;;;;;;;3.50;1.15;;;;;;;;;;4994761;28;20027;-70
2022/09/09 06:16:07;;;;;;;3.65;1.42;;;;;;;;;;4994733;28;20368;-69
2022/09/09 06:18:34;;;;;;;4.95;1.58;;;;;;;;;;4994998;28;20046;-68
2022/09/09 06:21:04;;;;;;;5.68;1.13;;;;;;;;;;4993116;28;20529;-67
2022/09/09 06:23:31;;;;;;;2.60;1.08;;;;;;;;;;4993218;28;20034;-68
2022/09/09 06:26:02;;;;;;;4.10;1.50;;;;;;;;;;4993030;28;20366;-68
2022/09/09 06:28:30;;;;;;;4.15;0.93;;;;;;;;;;4994299;28;20483;-68
2022/09/09 06:31:04;;;;;;;1.98;0.70;;;;;;;;;;4994348;28;20045;-69
2022/09/09 06:33:34;;;;;;;4.47;1.30;;;;;;;;;;4992855;28;20014;-71
2022/09/09 06:36:02;;;;;;;6.97;1.20;;;;;;;;;;4992688;28;20034;-71
2022/09/09 06:38:29;;;;;;;3.50;1.50;;;;;;;;;;4993132;28;20256;-71
2022/09/09 06:40:58;;;;;;;4.95;1.30;;;;;;;;;;4994509;28;20026;-72
2022/09/09 06:43:28;;;;;;;3.15;1.42;;;;;;;;;;4994261;28;20033;-69
2022/09/09 06:45:55;;;;;;;4.68;1.60;;;;;;;;;;4992846;28;20395;-69
2022/09/09 06:48:22;;;;;;;5.30;1.75;;;;;;;;;;4994140;28;20558;-70
2022/09/09 06:50:49;;;;;;;5.60;1.55;;;;;;;;;;4993758;28;20022;-71
2022/09/09 06:53:20;;;;;;;6.63;1.85;;;;;;;;;;4992696;28;20030;-71
2022/09/09 06:55:47;;;;;;;;;;;;;;;;;;4992275;28;20034;-70
2022/09/09 06:58:15;;;;;;;7.03;1.80;;;;;;;;;;4992688;28;19952;-71
2022/09/09 07:00:42;;;;;;;4.75;2.10;;;;;;;;;;4993867;28;20033;-71
2022/09/09 07:03:10;;;;;;;4.28;1.55;;;;;;;;;;4992404;28;20033;-73
2022/09/09 07:05:37;;;;;;;6.65;1.85;;;;;;;;;;4991462;28;20046;-71
2022/09/09 07:08:05;;;;;;;4.88;2.38;;;;;;;;;;4994227;28;20436;-73
2022/09/09 07:10:34;;;;;;;4.78;1.92;;;;;;;;;;4993969;28;20022;-69
2022/09/09 07:13:02;;;;;;;7.57;2.10;;;;;;;;;;4992532;28;20034;-71
2022/09/09 07:15:29;;;;;;;5.10;1.67;;;;;;;;;;4992675;28;20478;-71
2022/09/09 07:17:56;;;;;;;5.10;2.05;;;;;;;;;;4992917;28;20026;-71
2022/09/09 07:20:23;;;;;;;7.18;3.20;;;;;;;;;;4992838;28;20121;-70
2022/09/09 07:22:50;;;;;;;5.75;2.47;;;;;;;;;;4992241;28;20430;-70
2022/09/09 07:25:17;;;;;;;4.53;1.75;;;;;;;;;;4991640;28;20034;-70
2022/09/09 07:27:44;;;;;;;6.18;2.28;;;;;;;;;;4990879;28;20090;-70
2022/09/09 07:30:12;;;;;;;7.93;2.50;;;;;;;;;;4991246;28;20113;-71
2022/09/09 07:32:39;;;;;;;5.30;2.33;;;;;;;;;;4992164;28;20019;-72
2022/09/09 07:35:07;;;;;;;5.55;2.63;;;;;;;;;;4993318;28;20022;-71
2022/09/09 07:37:38;;;;;;;5.85;2.17;;;;;;;;;;4992417;28;20030;-70
2022/09/09 07:40:05;;;;;;;7.10;2.63;;;;;;;;;;4993744;28;20026;-70
2022/09/09 07:42:33;;;;;;;5.55;2.40;;;;;;;;;;4993504;28;20101;-71
2022/09/09 07:45:00;;;;;;;8.90;2.65;;;;;;;;;;4993530;28;20106;-72
2022/09/09 07:47:27;;;;;;;6.05;2.55;;;;;;;;;;4993847;28;20482;-70
2022/09/09 07:49:55;;;;;;;8.27;2.42;;;;;;;;;;4993598;28;20101;-71
2022/09/09 07:52:23;;;;;;;8.55;2.35;;;;;;;;;;4992184;28;20026;-70
2022/09/09 07:54:50;;;;;;;7.00;2.50;;;;;;;;;;4993717;28;20108;-71
2022/09/09 07:57:17;;;;;;;11.38;2.97;;;;;;;;;;4993410;28;20081;-70
2022/09/09 07:59:45;;;;;;;10.80;3.22;;;;;;;;;;4993501;28;20046;-70
2022/09/09 08:02:12;;;;;;;10.18;3.30;;;;;;;;;;4992131;28;20105;-70
2022/09/09 08:04:39;;;;;;;10.00;2.90;;;;;;;;;;4991418;28;20022;-70
2022/09/09 08:07:06;;;;;;;8.90;3.40;;;;;;;;;;4992593;28;20446;-71
2022/09/09 08:09:33;;;;;;;7.45;3.58;;;;;;;;;;4995035;28;20027;-71
2022/09/09 08:12:01;;;;;;;9.32;3.40;;;;;;;;;;4993788;28;20037;-72
2022/09/09 08:14:29;;;;;;;13.95;3.53;;;;;;;;;;4995144;28;20025;-69
2022/09/09 08:16:57;;;;;;;19.05;4.70;;;;;;;;;;4994983;28;20025;-71
2022/09/09 08:19:24;;;;;;;13.57;3.45;;;;;;;;;;4996363;28;20026;-69
2022/09/09 08:21:51;;;;;;;10.13;3.15;;;;;;;;;;4996850;28;20018;-68
2022/09/09 08:24:19;;;;;;;10.00;3.70;;;;;;;;;;4995658;28;20022;-68
2022/09/09 08:26:49;;;;;;;8.45;2.80;;;;;;;;;;4996754;28;20046;-69
2022/09/09 08:29:16;;;;;;;8.07;2.60;;;;;;;;;;4996825;28;20045;-70
2022/09/09 08:31:57;;;;;;;6.32;2.65;;;;;;;;;;4995257;28;20029;-70
2022/09/09 08:34:26;;;;;;;9.35;2.30;;;;;;;;;;4996667;28;20018;-69
2022/09/09 08:36:54;;;;;;;5.93;2.17;;;;;;;;;;4995100;28;20023;-71
2022/09/09 08:39:22;;;;;;;9.05;2.40;;;;;;;;;;4995180;28;20387;-70
2022/09/09 08:42:00;;;;;;;4.13;1.60;;;;;;;;;;4995128;28;20387;-70
2022/09/09 08:44:27;;;;;;;4.65;1.77;;;;;;;;;;4994750;28;20104;-71
2022/09/09 08:46:57;;;;;;;6.35;1.90;;;;;;;;;;4996220;28;20442;-69
2022/09/09 08:49:41;;;;;;;3.17;1.48;;;;;;;;;;4996120;28;20022;-70
2022/09/09 08:52:20;;;;;;;2.35;1.20;;;;;;;;;;4993483;28;20399;-71
2022/09/09 08:54:48;;;;;;;5.78;1.38;;;;;;;;;;4995772;28;20077;-71
2022/09/09 08:57:17;;;;;;;1.85;1.20;;;;;;;;;;4995535;28;20098;-70
2022/09/09 08:59:45;;;;;;;4.27;1.83;;;;;;;;;;4994300;28;20360;-71
2022/09/09 09:02:15;;;;;;;2.10;0.93;;;;;;;;;;4995484;28;20076;-71
2022/09/09 09:04:45;;;;;;;1.50;0.85;;;;;;;;;;4994505;28;20035;-71
2022/09/09 09:07:31;;;;;;;1.23;0.88;;;;;;;;;;4995913;28;20042;-71
2022/09/09 09:10:19;;;;;;;2.58;1.00;;;;;;;;;;4994473;28;20030;-71
2022/09/09 09:12:47;;;;;;;2.28;0.80;;;;;;;;;;4992707;28;20065;-71
2022/09/09 09:15:24;;;;;;;3.00;0.90;;;;;;;;;;4995938;28;20433;-71
2022/09/09 09:17:51;;;;;;;2.67;1.00;;;;;;;;;;4995900;28;20022;-72
2022/09/09 09:20:22;;;;;;;1.38;0.90;;;;;;;;;;4993738;28;20026;-71
2022/09/09 09:22:52;;;;;;;3.40;1.75;;;;;;;;;;4996011;28;20109;-71
2022/09/09 09:25:21;;;;;;;3.10;1.70;;;;;;;;;;4995650;28;20101;-70
2022/09/09 09:27:49;;;;;;;2.47;1.40;;;;;;;;;;4995737;28;20022;-72
2022/09/09 09:30:18;;;;;;;2.90;1.38;;;;;;;;;;4995717;28;20368;-71
2022/09/09 09:33:06;;;;;;;3.07;1.50;;;;;;;;;;4995554;28;20086;-70
2022/09/09 09:35:33;;;;;;;3.40;1.63;;;;;;;;;;4995724;28;20748;-71
2022/09/09 09:38:01;;;;;;;2.78;1.58;;;;;;;;;;4994193;28;20033;-71
2022/09/09 09:40:29;;;;;;;4.28;1.30;;;;;;;;;;4993906;28;20074;-74
2022/09/09 09:43:01;;;;;;;4.30;1.25;;;;;;;;;;4995353;28;20101;-71
2022/09/09 09:45:31;;;;;;;2.63;1.38;;;;;;;;;;4993887;28;20030;-72
2022/09/09 09:48:02;;;;;;;3.58;1.42;;;;;;;;;;4993739;28;20022;-71
2022/09/09 09:50:30;;;;;;;4.35;1.52;;;;;;;;;;4994276;28;20026;-72
2022/09/09 09:52:58;;;;;;;2.47;1.02;;;;;;;;;;4991967;28;20375;-72
2022/09/09 09:55:26;;;;;;;2.65;1.30;;;;;;;;;;4993459;28;20422;-72
2022/09/09 09:57:54;;;;;;;1.55;0.80;;;;;;;;;;4994715;28;20026;-71
2022/09/09 10:00:23;;;;;;;4.43;0.95;;;;;;;;;;4994743;28;20390;-70
2022/09/09 10:02:52;;;;;;;3.00;1.00;;;;;;;;;;4994743;28;20109;-72
2022/09/09 10:05:21;;;;;;;1.90;0.90;;;;;;;;;;4992526;28;20034;-72
2022/09/09 10:08:02;;;;;;;2.05;1.60;;;;;;;;;;4994260;28;20030;-72
2022/09/09 10:10:39;;;;;;;5.47;3.83;;;;;;;;;;4993427;28;20077;-72
2022/09/09 10:13:10;;;;;;;5.10;4.60;;;;;;;;;;4993224;28;20044;-72
2022/09/09 10:15:40;;;;;;;4.47;2.88;;;;;;;;;;4994730;28;20372;-71
2022/09/09 10:18:19;;;;;;;4.82;4.43;;;;;;;;;;4994472;28;20046;-71
2022/09/09 10:20:53;;;;;;;7.20;6.35;;;;;;;;;;4993123;28;20146;-72
2022/09/09 10:23:38;;;;;;;9.57;8.68;;;;;;;;;;4993515;28;20447;-72
2022/09/09 10:26:06;;;;;;;5.78;5.28;;;;;;;;;;4992462;28;20194;-71
2022/09/09 10:28:39;;;;;;;2.85;2.47;;;;;;;;;;4992038;28;20057;-73
2022/09/09 10:31:25;;;;;;;3.92;3.30;;;;;;;;;;4989709;28;20100;-73
2022/09/09 10:34:07;;;;;;;8.50;7.28;;;;;;;;;;4992350;28;20045;-71
2022/09/09 10:36:34;;;;;;;5.68;5.13;;;;;;;;;;4992259;28;20022;-72
2022/09/09 10:39:24;;;;;;;7.95;5.30;;;;;;;;;;4993254;28;20037;-70
2022/09/09 10:41:51;;;;;;;7.70;3.25;;;;;;;;;;4994142;28;20030;-70
2022/09/09 10:44:47;;;;;;;4.32;2.83;;;;;;;;;;4994294;28;20072;-70
2022/09/09 10:47:30;;;;;;;1.88;1.30;;;;;;;;;;4989309;28;20042;-72
2022/09/09 10:49:57;;;;;;;3.00;2.05;;;;;;;;;;4994385;28;20479;-73
2022/09/09 10:52:40;;;;;;;4.43;1.77;;;;;;;;;;4993896;28;20498;-71
2022/09/09 10:55:12;;;;;;;1.55;1.40;;;;;;;;;;4992435;28;20080;-73
2022/09/09 10:57:49;;;;;;;1.20;0.70;;;;;;;;;;4993975;28;20109;-72
2022/09/09 11:00:21;;;;;;;6.55;3.13;;;;;;;;;;4992735;28;20022;-71
2022/09/09 11:03:02;;;;;;;6.43;3.97;;;;;;;;;;4993734;28;20029;-71
2022/09/09 11:05:28;;;;;;;;;;;;;;;;;;4994019;28;20026;-72
2022/09/09 11:08:01;;;;;;;4.15;3.42;;;;;;;;;;4994325;28;19905;-72
2022/09/09 11:10:35;;;;;;;1.50;1.00;;;;;;;;;;4992551;28;20027;-71
2022/09/09 11:13:04;;;;;;;5.32;3.38;;;;;;;;;;4994076;28;20018;-71
2022/09/09 11:15:42;;;;;;;2.30;2.00;;;;;;;;;;4992296;28;20030;-72
2022/09/09 11:18:14;;;;;;;0.98;0.88;;;;;;;;;;4991516;28;20061;-71
2022/09/09 11:20:42;;;;;;;1.67;1.25;;;;;;;;;;4992989;28;20026;-73
2022/09/09 11:23:15;;;;;;;8.70;7.75;;;;;;;;;;4993682;28;20101;-72
2022/09/09 11:25:45;;;;;;;5.57;5.07;;;;;;;;;;4993320;28;20022;-72
2022/09/09 11:28:24;;;;;;;8.43;6.95;;;;;;;;;;4992461;28;20022;-71
2022/09/09 11:31:01;;;;;;;4.22;3.85;;;;;;;;;;4992322;28;20449;-69
2022/09/09 11:33:34;;;;;;;9.50;8.65;;;;;;;;;;4993563;28;20029;-71
2022/09/09 11:36:08;;;;;;;6.20;4.05;;;;;;;;;;4992681;28;20030;-72
2022/09/09 11:38:38;;;;;;;1.70;1.55;;;;;;;;;;4992856;28;20506;-72
2022/09/09 11:41:07;;;;;;;1.45;1.27;;;;;;;;;;4993565;28;20038;-70
2022/09/09 11:43:39;;;;;;;7.85;6.32;;;;;;;;;;4996974;28;20106;-71
2022/09/09 11:46:07;;;;;;;1.50;0.90;;;;;;;;;;4997728;28;20482;-71
2022/09/09 11:48:39;;;;;;;1.98;0.88;;;;;;;;;;4997506;28;20467;-71
2022/09/09 11:51:10;;;;;;;1.25;0.80;;;;;;;;;;4997245;28;20057;-72
2022/09/09 11:53:49;;;;;;;2.13;1.13;;;;;;;;;;4997288;28;20033;-71
2022/09/09 11:56:26;;;;;;;1.63;0.50;;;;;;;;;;4997368;28;20054;-69
2022/09/09 11:59:06;;;;;;;2.00;1.50;;;;;;;;;;4997233;28;20478;-71
2022/09/09 12:01:36;;;;;;;6.55;1.58;;;;;;;;;;4995492;28;20526;-72
2022/09/09 12:04:07;;;;;;;8.45;1.63;;;;;;;;;;4996673;28;20034;-71
2022/09/09 12:06:43;;;;;;;4.47;3.60;;;;;;;;;;4996820;28;20042;-71
2022/09/09 12:09:30;;;;;;;1.17;0.80;;;;;;;;;;4996810;28;20046;-70
2022/09/09 12:12:07;;;;;;;1.88;1.52;;;;;;;;;;4996755;28;20015;-70
2022/09/09 12:14:38;;;;;;;1.60;1.50;;;;;;;;;;4996941;28;20072;-68
2022/09/09 12:17:18;;;;;;;1.27;0.65;;;;;;;;;;4996914;28;20084;-69
2022/09/09 12:19:45;;;;;;;0.40;0.40;;;;;;;;;;4995447;28;20022;-69
2022/09/09 12:22:25;;;;;;;3.65;0.63;;;;;;;;;;4996723;28;20098;-70
2022/09/09 12:25:11;;;;;;;1.00;0.50;;;;;;;;;;4996814;28;20022;-69
2022/09/09 12:27:57;;;;;;;0.98;0.30;;;;;;;;;;4996764;28;20252;-70
2022/09/09 12:30:29;;;;;;;1.52;0.60;;;;;;;;;;4995402;28;20018;-70
2022/09/09 12:33:03;;;;;;;0.60;0.30;;;;;;;;;;4995434;28;20029;-70
2022/09/09 12:35:31;;;;;;;0.50;0.30;;;;;;;;;;4995108;28;20039;-70
2022/09/09 12:38:02;;;;;;;0.35;0.20;;;;;;;;;;4996510;28;20022;-68
2022/09/09 12:40:32;;;;;;;1.05;0.40;;;;;;;;;;4996496;28;20026;-68
2022/09/09 12:43:01;;;;;;;1.05;0.50;;;;;;;;;;4996766;28;20050;-70
2022/09/09 12:45:31;;;;;;;0.70;0.40;;;;;;;;;;4995066;28;20026;-69
2022/09/09 12:48:01;;;;;;;1.02;0.60;;;;;;;;;;4995037;28;20428;-70
2022/09/09 12:50:32;;;;;;;2.20;0.30;;;;;;;;;;4995160;28;20089;-70
2022/09/09 12:53:02;;;;;;;0.75;0.20;;;;;;;;;;4995682;28;20022;-70
2022/09/09 12:55:30;;;;;;;11.35;0.85;;;;;;;;;;4995827;28;20026;-69
2022/09/09 12:58:00;;;;;;;0.50;0.38;;;;;;;;;;4995025;28;20041;-68
2022/09/09 13:00:28;;;;;;;0.30;0.30;;;;;;;;;;4995980;28;20077;-69
2022/09/09 13:02:55;;;;;;;0.50;0.25;;;;;;;;;;4994850;28;20389;-68
2022/09/09 13:05:35;;;;;;;1.85;0.40;;;;;;;;;;4995880;28;20025;-68
2022/09/09 13:08:04;;;;;;;2.45;0.60;;;;;;;;;;4996110;28;20045;-69
2022/09/09 13:10:34;;;;;;;0.88;0.30;;;;;;;;;;4994848;28;20049;-68
2022/09/09 13:13:01;;;;;;;1.20;0.52;;;;;;;;;;4995923;28;20030;-69
2022/09/09 13:15:30;;;;;;;0.85;0.40;;;;;;;;;;4995932;28;20415;-70
2022/09/09 13:18:00;;;;;;;0.80;0.60;;;;;;;;;;4995469;28;20390;-69
2022/09/09 13:20:28;;;;;;;1.23;0.50;;;;;;;;;;4994648;28;20030;-69
2022/09/09 13:22:56;;;;;;;0.95;0.30;;;;;;;;;;4995809;28;20030;-69
2022/09/09 13:25:30;;;;;;;1.10;0.30;;;;;;;;;;4994225;28;20030;-68
2022/09/09 13:28:04;;;;;;;1.02;0.40;;;;;;;;;;4995851;28;20101;-68
2022/09/09 13:30:43;;;;;;;0.30;0.30;;;;;;;;;;4995682;28;20506;-68
2022/09/09 13:33:10;;;;;;;0.40;0.20;;;;;;;;;;4995933;28;20080;-69
2022/09/09 13:35:55;;;;;;;0.40;0.17;;;;;;;;;;4995619;28;20104;-68
2022/09/09 13:38:22;;;;;;;0.75;0.17;;;;;;;;;;4995568;28;20105;-69
2022/09/09 13:40:57;;;;;;;0.20;0.13;;;;;;;;;;4993907;28;20065;-68
2022/09/09 13:43:25;;;;;;;0.38;0.20;;;;;;;;;;4994026;28;20030;-69
2022/09/09 13:46:15;;;;;;;0.77;0.20;;;;;;;;;;4995447;28;20026;-69
2022/09/09 13:48:43;;;;;;;0.35;0.20;;;;;;;;;;4985538;28;20121;-69
2022/09/09 13:51:27;;;;;;;0.20;0.15;;;;;;;;;;4995146;28;20490;-69
2022/09/09 13:53:54;;;;;;;1.30;0.30;;;;;;;;;;4993837;28;20395;-69
2022/09/09 13:56:21;;;;;;;0.50;0.10;;;;;;;;;;4994743;28;20109;-69
2022/09/09 13:58:48;;;;;;;0.47;0.10;;;;;;;;;;4993659;28;20109;-70
2022/09/09 14:01:16;;;;;;;0.60;0.20;;;;;;;;;;4995085;28;20105;-69
2022/09/09 14:03:43;;;;;;;0.98;0.40;;;;;;;;;;4994908;28;20027;-69
2022/09/09 14:06:11;;;;;;;0.20;0.10;;;;;;;;;;4994318;28;20384;-69
2022/09/09 14:08:38;;;;;;;0.52;0.10;;;;;;;;;;4995096;28;20089;-70
2022/09/09 14:11:05;;;;;;;0.25;0.10;;;;;;;;;;4993435;28;20525;-69
2022/09/09 14:13:33;;;;;;;0.55;0.10;;;;;;;;;;4993613;28;20022;-69
2022/09/09 14:16:00;;;;;;;0.13;0.10;;;;;;;;;;4994945;28;20034;-69
2022/09/09 14:18:27;;;;;;;0.20;0.20;;;;;;;;;;4994748;28;20026;-69
2022/09/09 14:20:54;;;;;;;0.20;0.10;;;;;;;;;;4994809;28;20435;-69
2022/09/09 14:23:21;;;;;;;0.30;0.10;;;;;;;;;;4994793;28;20038;-70
2022/09/09 14:25:49;;;;;;;0.10;0.10;;;;;;;;;;4994619;28;20121;-69
2022/09/09 14:28:16;;;;;;;0.10;0.10;;;;;;;;;;4994812;28;20430;-69
2022/09/09 14:30:44;;;;;;;1.30;0.10;;;;;;;;;;4994773;28;20026;-69
2022/09/09 14:33:15;;;;;;;0.10;0.10;;;;;;;;;;4994322;28;20079;-69
2022/09/09 14:35:44;;;;;;;0.10;0.10;;;;;;;;;;4994746;28;20062;-70
2022/09/09 14:38:11;;;;;;;0.10;0.10;;;;;;;;;;4994494;28;20161;-69
2022/09/09 14:40:38;;;;;;;0.00;0.00;;;;;;;;;;4994541;28;20352;-69
2022/09/09 14:43:06;;;;;;;0.10;0.10;;;;;;;;;;4994571;28;20022;-68
2022/09/09 14:45:33;;;;;;;0.10;0.10;;;;;;;;;;4994504;28;20030;-70
2022/09/09 14:48:00;;;;;;;0.30;0.08;;;;;;;;;;4994371;28;20053;-69
2022/09/09 14:50:28;;;;;;;0.10;0.10;;;;;;;;;;4994359;28;20018;-68
2022/09/09 14:52:55;;;;;;;0.25;0.10;;;;;;;;;;4994195;28;20024;-69
2022/09/09 14:55:22;;;;;;;0.38;0.10;;;;;;;;;;4994237;28;20054;-68
2022/09/09 14:57:50;;;;;;;0.10;0.10;;;;;;;;;;4994257;28;20105;-68
2022/09/09 15:00:17;;;;;;;0.63;0.10;;;;;;;;;;4994268;28;20038;-69
2022/09/09 15:02:44;;;;;;;0.47;0.10;;;;;;;;;;4993973;28;20486;-69
2022/09/09 15:05:11;;;;;;;0.47;0.10;;;;;;;;;;4993894;28;20451;-70